sensor_id;sensor_type;location;lat;lon;timestamp;P1;durP1;ratioP1;P2;durP2;ratioP2
71351;SDS011;59159;51.652;4.864;2023-05-23T00:01:31;6.80;;;3.05;;
71351;SDS011;59159;51.652;4.864;2023-05-23T00:03:57;7.80;;;3.35;;
71351;SDS011;59159;51.652;4.864;2023-05-23T00:06:23;7.27;;;3.10;;
71351;SDS011;59159;51.652;4.864;2023-05-23T00:08:49;8.38;;;3.72;;
71351;SDS011;59159;51.652;4.864;2023-05-23T00:11:15;7.40;;;3.20;;
71351;SDS011;59159;51.652;4.864;2023-05-23T00:13:42;7.23;;;3.20;;
71351;SDS011;59159;51.652;4.864;2023-05-23T00:16:09;8.20;;;3.13;;
71351;SDS011;59159;51.652;4.864;2023-05-23T00:18:35;8.50;;;3.20;;
71351;SDS011;59159;51.652;4.864;2023-05-23T00:21:01;7.53;;;2.97;;
71351;SDS011;59159;51.652;4.864;2023-05-23T00:23:27;7.47;;;3.10;;
71351;SDS011;59159;51.652;4.864;2023-05-23T00:25:54;8.07;;;3.00;;
71351;SDS011;59159;51.652;4.864;2023-05-23T00:28:20;6.97;;;2.97;;
71351;SDS011;59159;51.652;4.864;2023-05-23T00:30:47;9.63;;;3.20;;
71351;SDS011;59159;51.652;4.864;2023-05-23T00:33:13;9.07;;;3.00;;
71351;SDS011;59159;51.652;4.864;2023-05-23T00:35:40;7.57;;;2.67;;
71351;SDS011;59159;51.652;4.864;2023-05-23T00:38:06;7.57;;;2.83;;
71351;SDS011;59159;51.652;4.864;2023-05-23T00:40:33;7.68;;;3.25;;
71351;SDS011;59159;51.652;4.864;2023-05-23T00:42:59;8.00;;;3.30;;
71351;SDS011;59159;51.652;4.864;2023-05-23T00:45:25;8.53;;;3.37;;
71351;SDS011;59159;51.652;4.864;2023-05-23T00:47:51;8.45;;;3.35;;
71351;SDS011;59159;51.652;4.864;2023-05-23T00:50:18;8.13;;;3.30;;
71351;SDS011;59159;51.652;4.864;2023-05-23T00:52:45;8.15;;;3.47;;
71351;SDS011;59159;51.652;4.864;2023-05-23T00:55:12;7.93;;;3.57;;
71351;SDS011;59159;51.652;4.864;2023-05-23T00:57:38;8.52;;;2.85;;
71351;SDS011;59159;51.652;4.864;2023-05-23T01:00:08;8.07;;;3.60;;
71351;SDS011;59159;51.652;4.864;2023-05-23T01:02:35;6.40;;;2.73;;
71351;SDS011;59159;51.652;4.864;2023-05-23T01:05:05;6.78;;;3.33;;
71351;SDS011;59159;51.652;4.864;2023-05-23T01:07:31;7.50;;;3.10;;
71351;SDS011;59159;51.652;4.864;2023-05-23T01:09:57;6.93;;;3.20;;
71351;SDS011;59159;51.652;4.864;2023-05-23T01:14:56;7.63;;;3.28;;
71351;SDS011;59159;51.652;4.864;2023-05-23T01:17:25;7.28;;;2.83;;
71351;SDS011;59159;51.652;4.864;2023-05-23T01:20:05;7.07;;;2.73;;
71351;SDS011;59159;51.652;4.864;2023-05-23T01:27:54;8.77;;;2.90;;
71351;SDS011;59159;51.652;4.864;2023-05-23T01:30:22;7.22;;;2.90;;
71351;SDS011;59159;51.652;4.864;2023-05-23T01:32:50;6.80;;;2.70;;
71351;SDS011;59159;51.652;4.864;2023-05-23T01:35:17;9.37;;;3.70;;
71351;SDS011;59159;51.652;4.864;2023-05-23T01:37:47;8.00;;;2.90;;
71351;SDS011;59159;51.652;4.864;2023-05-23T01:40:13;8.10;;;3.13;;
71351;SDS011;59159;51.652;4.864;2023-05-23T01:42:39;8.50;;;3.10;;
71351;SDS011;59159;51.652;4.864;2023-05-23T01:45:05;6.60;;;2.93;;
71351;SDS011;59159;51.652;4.864;2023-05-23T01:47:31;7.43;;;3.13;;
71351;SDS011;59159;51.652;4.864;2023-05-23T01:49:58;7.88;;;3.20;;
71351;SDS011;59159;51.652;4.864;2023-05-23T01:52:24;8.60;;;3.13;;
71351;SDS011;59159;51.652;4.864;2023-05-23T01:54:50;7.18;;;2.85;;
71351;SDS011;59159;51.652;4.864;2023-05-23T01:57:17;7.07;;;2.67;;
71351;SDS011;59159;51.652;4.864;2023-05-23T01:59:44;8.07;;;3.40;;
71351;SDS011;59159;51.652;4.864;2023-05-23T02:02:10;6.82;;;2.67;;
71351;SDS011;59159;51.652;4.864;2023-05-23T02:04:36;7.20;;;3.40;;
71351;SDS011;59159;51.652;4.864;2023-05-23T02:07:02;6.93;;;3.30;;
71351;SDS011;59159;51.652;4.864;2023-05-23T02:09:28;7.07;;;2.70;;
71351;SDS011;59159;51.652;4.864;2023-05-23T02:11:54;8.18;;;2.85;;
71351;SDS011;59159;51.652;4.864;2023-05-23T02:14:20;7.57;;;2.78;;
71351;SDS011;59159;51.652;4.864;2023-05-23T02:16:47;6.20;;;2.63;;
71351;SDS011;59159;51.652;4.864;2023-05-23T02:19:13;8.07;;;2.90;;
71351;SDS011;59159;51.652;4.864;2023-05-23T02:21:40;7.22;;;2.78;;
71351;SDS011;59159;51.652;4.864;2023-05-23T02:24:06;7.20;;;2.80;;
71351;SDS011;59159;51.652;4.864;2023-05-23T02:26:32;8.63;;;3.70;;
71351;SDS011;59159;51.652;4.864;2023-05-23T02:28:58;7.25;;;2.80;;
71351;SDS011;59159;51.652;4.864;2023-05-23T02:31:24;9.30;;;3.47;;
71351;SDS011;59159;51.652;4.864;2023-05-23T02:33:50;7.00;;;2.83;;
71351;SDS011;59159;51.652;4.864;2023-05-23T02:36:16;8.95;;;3.22;;
71351;SDS011;59159;51.652;4.864;2023-05-23T02:38:42;7.18;;;2.67;;
71351;SDS011;59159;51.652;4.864;2023-05-23T02:41:07;7.13;;;2.90;;
71351;SDS011;59159;51.652;4.864;2023-05-23T02:43:34;7.40;;;3.08;;
71351;SDS011;59159;51.652;4.864;2023-05-23T02:46:00;8.13;;;3.30;;
71351;SDS011;59159;51.652;4.864;2023-05-23T02:48:26;7.90;;;2.97;;
71351;SDS011;59159;51.652;4.864;2023-05-23T02:50:51;7.68;;;2.72;;
71351;SDS011;59159;51.652;4.864;2023-05-23T02:53:18;7.03;;;2.65;;
71351;SDS011;59159;51.652;4.864;2023-05-23T02:55:44;7.95;;;2.80;;
71351;SDS011;59159;51.652;4.864;2023-05-23T02:58:10;8.00;;;2.60;;
71351;SDS011;59159;51.652;4.864;2023-05-23T03:00:36;7.15;;;3.13;;
71351;SDS011;59159;51.652;4.864;2023-05-23T03:03:02;8.13;;;2.97;;
71351;SDS011;59159;51.652;4.864;2023-05-23T03:05:28;7.47;;;2.83;;
71351;SDS011;59159;51.652;4.864;2023-05-23T03:07:54;7.05;;;2.55;;
71351;SDS011;59159;51.652;4.864;2023-05-23T03:10:21;6.22;;;2.80;;
71351;SDS011;59159;51.652;4.864;2023-05-23T03:12:47;7.80;;;2.90;;
71351;SDS011;59159;51.652;4.864;2023-05-23T03:15:13;6.82;;;3.10;;
71351;SDS011;59159;51.652;4.864;2023-05-23T03:17:39;7.95;;;2.63;;
71351;SDS011;59159;51.652;4.864;2023-05-23T03:20:05;7.05;;;3.00;;
71351;SDS011;59159;51.652;4.864;2023-05-23T03:22:33;7.37;;;2.87;;
71351;SDS011;59159;51.652;4.864;2023-05-23T03:25:00;7.25;;;2.80;;
71351;SDS011;59159;51.652;4.864;2023-05-23T03:27:26;9.38;;;3.00;;
71351;SDS011;59159;51.652;4.864;2023-05-23T03:29:52;8.00;;;2.90;;
71351;SDS011;59159;51.652;4.864;2023-05-23T03:32:18;7.47;;;2.90;;
71351;SDS011;59159;51.652;4.864;2023-05-23T03:34:43;8.52;;;3.08;;
71351;SDS011;59159;51.652;4.864;2023-05-23T03:37:10;7.00;;;3.43;;
71351;SDS011;59159;51.652;4.864;2023-05-23T03:39:36;6.22;;;2.55;;
71351;SDS011;59159;51.652;4.864;2023-05-23T03:42:02;6.25;;;2.53;;
71351;SDS011;59159;51.652;4.864;2023-05-23T03:44:28;9.65;;;3.08;;
71351;SDS011;59159;51.652;4.864;2023-05-23T03:46:54;7.37;;;2.80;;
71351;SDS011;59159;51.652;4.864;2023-05-23T03:49:20;7.78;;;2.83;;
71351;SDS011;59159;51.652;4.864;2023-05-23T03:51:46;8.52;;;3.05;;
71351;SDS011;59159;51.652;4.864;2023-05-23T03:54:12;8.20;;;3.10;;
71351;SDS011;59159;51.652;4.864;2023-05-23T03:56:38;7.80;;;2.90;;
71351;SDS011;59159;51.652;4.864;2023-05-23T03:59:04;8.80;;;3.15;;
71351;SDS011;59159;51.652;4.864;2023-05-23T04:01:30;9.77;;;2.90;;
71351;SDS011;59159;51.652;4.864;2023-05-23T04:03:56;8.88;;;3.72;;
71351;SDS011;59159;51.652;4.864;2023-05-23T04:06:24;7.60;;;2.88;;
71351;SDS011;59159;51.652;4.864;2023-05-23T04:08:50;7.88;;;3.10;;
71351;SDS011;59159;51.652;4.864;2023-05-23T04:11:16;9.13;;;3.33;;
71351;SDS011;59159;51.652;4.864;2023-05-23T04:13:42;9.30;;;3.05;;
71351;SDS011;59159;51.652;4.864;2023-05-23T04:16:11;7.15;;;2.78;;
71351;SDS011;59159;51.652;4.864;2023-05-23T04:18:37;8.03;;;3.43;;
71351;SDS011;59159;51.652;4.864;2023-05-23T04:21:03;7.43;;;3.08;;
71351;SDS011;59159;51.652;4.864;2023-05-23T04:23:29;7.63;;;2.70;;
71351;SDS011;59159;51.652;4.864;2023-05-23T04:25:55;8.73;;;3.10;;
71351;SDS011;59159;51.652;4.864;2023-05-23T04:28:25;8.00;;;2.90;;
71351;SDS011;59159;51.652;4.864;2023-05-23T04:30:51;7.78;;;3.10;;
71351;SDS011;59159;51.652;4.864;2023-05-23T04:33:17;8.45;;;2.70;;
71351;SDS011;59159;51.652;4.864;2023-05-23T04:35:43;8.63;;;2.90;;
71351;SDS011;59159;51.652;4.864;2023-05-23T04:38:10;8.55;;;3.10;;
71351;SDS011;59159;51.652;4.864;2023-05-23T04:40:37;7.57;;;2.70;;
71351;SDS011;59159;51.652;4.864;2023-05-23T04:43:03;9.40;;;3.20;;
71351;SDS011;59159;51.652;4.864;2023-05-23T04:45:29;7.32;;;3.10;;
71351;SDS011;59159;51.652;4.864;2023-05-23T04:47:55;7.72;;;3.15;;
71351;SDS011;59159;51.652;4.864;2023-05-23T04:50:21;8.93;;;2.67;;
71351;SDS011;59159;51.652;4.864;2023-05-23T04:52:47;10.80;;;3.10;;
71351;SDS011;59159;51.652;4.864;2023-05-23T04:55:13;9.05;;;3.25;;
71351;SDS011;59159;51.652;4.864;2023-05-23T04:57:40;10.85;;;3.38;;
71351;SDS011;59159;51.652;4.864;2023-05-23T05:00:06;10.03;;;4.23;;
71351;SDS011;59159;51.652;4.864;2023-05-23T05:02:35;10.07;;;4.00;;
71351;SDS011;59159;51.652;4.864;2023-05-23T05:05:02;9.23;;;3.45;;
71351;SDS011;59159;51.652;4.864;2023-05-23T05:07:28;11.70;;;3.30;;
71351;SDS011;59159;51.652;4.864;2023-05-23T05:09:54;10.73;;;3.33;;
71351;SDS011;59159;51.652;4.864;2023-05-23T05:12:20;11.25;;;3.85;;
71351;SDS011;59159;51.652;4.864;2023-05-23T05:14:46;39.23;;;5.93;;
71351;SDS011;59159;51.652;4.864;2023-05-23T05:17:12;11.07;;;3.95;;
71351;SDS011;59159;51.652;4.864;2023-05-23T05:19:38;8.43;;;3.35;;
71351;SDS011;59159;51.652;4.864;2023-05-23T05:22:04;11.95;;;3.55;;
71351;SDS011;59159;51.652;4.864;2023-05-23T05:24:32;9.87;;;3.80;;
71351;SDS011;59159;51.652;4.864;2023-05-23T05:26:58;10.20;;;3.70;;
71351;SDS011;59159;51.652;4.864;2023-05-23T05:29:24;14.10;;;3.70;;
71351;SDS011;59159;51.652;4.864;2023-05-23T05:31:50;14.13;;;4.17;;
71351;SDS011;59159;51.652;4.864;2023-05-23T05:34:17;11.38;;;3.60;;
71351;SDS011;59159;51.652;4.864;2023-05-23T05:36:43;11.15;;;3.83;;
71351;SDS011;59159;51.652;4.864;2023-05-23T05:39:15;10.47;;;3.40;;
71351;SDS011;59159;51.652;4.864;2023-05-23T05:41:41;9.65;;;3.33;;
71351;SDS011;59159;51.652;4.864;2023-05-23T05:44:07;12.05;;;3.47;;
71351;SDS011;59159;51.652;4.864;2023-05-23T05:46:33;13.77;;;5.00;;
71351;SDS011;59159;51.652;4.864;2023-05-23T05:48:59;11.60;;;3.67;;
71351;SDS011;59159;51.652;4.864;2023-05-23T05:51:25;9.50;;;3.10;;
71351;SDS011;59159;51.652;4.864;2023-05-23T05:53:51;12.90;;;3.47;;
71351;SDS011;59159;51.652;4.864;2023-05-23T05:56:17;8.97;;;3.87;;
71351;SDS011;59159;51.652;4.864;2023-05-23T05:58:43;11.15;;;3.58;;
71351;SDS011;59159;51.652;4.864;2023-05-23T06:01:09;8.13;;;3.15;;
71351;SDS011;59159;51.652;4.864;2023-05-23T06:03:36;11.67;;;3.37;;
71351;SDS011;59159;51.652;4.864;2023-05-23T06:06:02;12.02;;;3.10;;
71351;SDS011;59159;51.652;4.864;2023-05-23T06:08:28;9.73;;;3.33;;
71351;SDS011;59159;51.652;4.864;2023-05-23T06:10:54;16.30;;;5.10;;
71351;SDS011;59159;51.652;4.864;2023-05-23T06:13:20;12.17;;;4.37;;
71351;SDS011;59159;51.652;4.864;2023-05-23T06:15:46;14.60;;;4.32;;
71351;SDS011;59159;51.652;4.864;2023-05-23T06:18:12;10.18;;;4.20;;
71351;SDS011;59159;51.652;4.864;2023-05-23T06:20:38;10.83;;;4.03;;
71351;SDS011;59159;51.652;4.864;2023-05-23T06:23:04;13.82;;;3.85;;
71351;SDS011;59159;51.652;4.864;2023-05-23T06:25:31;11.13;;;4.28;;
71351;SDS011;59159;51.652;4.864;2023-05-23T06:27:57;14.47;;;5.10;;
71351;SDS011;59159;51.652;4.864;2023-05-23T06:30:23;18.48;;;4.80;;
71351;SDS011;59159;51.652;4.864;2023-05-23T06:32:49;12.20;;;4.40;;
71351;SDS011;59159;51.652;4.864;2023-05-23T06:35:15;13.38;;;4.50;;
71351;SDS011;59159;51.652;4.864;2023-05-23T06:37:41;13.40;;;4.50;;
71351;SDS011;59159;51.652;4.864;2023-05-23T06:40:10;14.18;;;4.90;;
71351;SDS011;59159;51.652;4.864;2023-05-23T06:42:38;13.35;;;4.43;;
71351;SDS011;59159;51.652;4.864;2023-05-23T06:45:04;16.10;;;5.03;;
71351;SDS011;59159;51.652;4.864;2023-05-23T06:47:30;12.25;;;4.32;;
71351;SDS011;59159;51.652;4.864;2023-05-23T06:49:56;12.80;;;4.30;;
71351;SDS011;59159;51.652;4.864;2023-05-23T06:52:22;12.93;;;4.97;;
71351;SDS011;59159;51.652;4.864;2023-05-23T06:54:48;14.50;;;4.28;;
71351;SDS011;59159;51.652;4.864;2023-05-23T06:57:14;15.15;;;5.50;;
71351;SDS011;59159;51.652;4.864;2023-05-23T06:59:40;12.48;;;4.68;;
71351;SDS011;59159;51.652;4.864;2023-05-23T07:02:06;11.60;;;4.20;;
71351;SDS011;59159;51.652;4.864;2023-05-23T07:04:32;10.68;;;3.97;;
71351;SDS011;59159;51.652;4.864;2023-05-23T07:06:58;12.55;;;4.22;;
71351;SDS011;59159;51.652;4.864;2023-05-23T07:09:24;10.70;;;3.83;;
71351;SDS011;59159;51.652;4.864;2023-05-23T07:11:50;10.27;;;3.65;;
71351;SDS011;59159;51.652;4.864;2023-05-23T07:14:16;14.10;;;3.95;;
71351;SDS011;59159;51.652;4.864;2023-05-23T07:16:42;12.13;;;4.47;;
71351;SDS011;59159;51.652;4.864;2023-05-23T07:19:08;10.35;;;4.00;;
71351;SDS011;59159;51.652;4.864;2023-05-23T07:21:34;11.35;;;3.83;;
71351;SDS011;59159;51.652;4.864;2023-05-23T07:24:00;13.82;;;3.58;;
71351;SDS011;59159;51.652;4.864;2023-05-23T07:26:26;8.20;;;3.27;;
71351;SDS011;59159;51.652;4.864;2023-05-23T07:28:52;9.40;;;3.35;;
71351;SDS011;59159;51.652;4.864;2023-05-23T07:31:18;11.23;;;3.35;;
71351;SDS011;59159;51.652;4.864;2023-05-23T07:33:44;13.10;;;3.30;;
71351;SDS011;59159;51.652;4.864;2023-05-23T07:36:10;11.73;;;3.70;;
71351;SDS011;59159;51.652;4.864;2023-05-23T07:38:36;10.00;;;3.20;;
71351;SDS011;59159;51.652;4.864;2023-05-23T07:41:02;7.90;;;2.80;;
71351;SDS011;59159;51.652;4.864;2023-05-23T07:43:28;8.43;;;2.72;;
71351;SDS011;59159;51.652;4.864;2023-05-23T07:45:54;10.02;;;3.15;;
71351;SDS011;59159;51.652;4.864;2023-05-23T07:48:20;8.85;;;2.83;;
71351;SDS011;59159;51.652;4.864;2023-05-23T07:50:46;8.13;;;2.90;;
71351;SDS011;59159;51.652;4.864;2023-05-23T07:53:12;9.57;;;2.80;;
71351;SDS011;59159;51.652;4.864;2023-05-23T07:55:38;9.25;;;3.15;;
71351;SDS011;59159;51.652;4.864;2023-05-23T07:58:04;8.60;;;2.80;;
71351;SDS011;59159;51.652;4.864;2023-05-23T08:00:31;7.95;;;2.78;;
71351;SDS011;59159;51.652;4.864;2023-05-23T08:02:57;7.75;;;3.08;;
71351;SDS011;59159;51.652;4.864;2023-05-23T08:05:23;6.67;;;2.33;;
71351;SDS011;59159;51.652;4.864;2023-05-23T08:07:49;8.55;;;2.80;;
71351;SDS011;59159;51.652;4.864;2023-05-23T08:10:17;7.60;;;2.70;;
71351;SDS011;59159;51.652;4.864;2023-05-23T08:12:43;8.40;;;2.80;;
71351;SDS011;59159;51.652;4.864;2023-05-23T08:15:09;10.50;;;2.60;;
71351;SDS011;59159;51.652;4.864;2023-05-23T08:17:35;9.40;;;3.45;;
71351;SDS011;59159;51.652;4.864;2023-05-23T08:20:01;7.22;;;3.17;;
71351;SDS011;59159;51.652;4.864;2023-05-23T08:22:29;7.83;;;2.60;;
71351;SDS011;59159;51.652;4.864;2023-05-23T08:24:55;7.93;;;2.42;;
71351;SDS011;59159;51.652;4.864;2023-05-23T08:27:21;7.38;;;2.47;;
71351;SDS011;59159;51.652;4.864;2023-05-23T08:29:47;9.23;;;2.47;;
71351;SDS011;59159;51.652;4.864;2023-05-23T08:32:13;8.20;;;2.83;;
71351;SDS011;59159;51.652;4.864;2023-05-23T08:34:39;7.45;;;2.45;;
71351;SDS011;59159;51.652;4.864;2023-05-23T08:37:10;9.18;;;2.75;;
71351;SDS011;59159;51.652;4.864;2023-05-23T08:39:36;6.03;;;2.40;;
71351;SDS011;59159;51.652;4.864;2023-05-23T08:42:02;7.38;;;2.60;;
71351;SDS011;59159;51.652;4.864;2023-05-23T08:44:28;6.90;;;2.45;;
71351;SDS011;59159;51.652;4.864;2023-05-23T08:46:54;7.80;;;2.30;;
71351;SDS011;59159;51.652;4.864;2023-05-23T08:49:22;8.52;;;2.30;;
71351;SDS011;59159;51.652;4.864;2023-05-23T08:51:48;8.48;;;2.33;;
71351;SDS011;59159;51.652;4.864;2023-05-23T08:54:16;8.10;;;2.30;;
71351;SDS011;59159;51.652;4.864;2023-05-23T08:56:43;8.57;;;2.40;;
71351;SDS011;59159;51.652;4.864;2023-05-23T08:59:09;7.65;;;2.10;;
71351;SDS011;59159;51.652;4.864;2023-05-23T09:01:36;7.07;;;2.10;;
71351;SDS011;59159;51.652;4.864;2023-05-23T09:04:04;6.53;;;2.10;;
71351;SDS011;59159;51.652;4.864;2023-05-23T09:06:31;8.02;;;2.58;;
71351;SDS011;59159;51.652;4.864;2023-05-23T09:08:58;7.90;;;2.58;;
71351;SDS011;59159;51.652;4.864;2023-05-23T09:11:24;6.67;;;2.07;;
71351;SDS011;59159;51.652;4.864;2023-05-23T09:13:50;6.78;;;1.92;;
71351;SDS011;59159;51.652;4.864;2023-05-23T09:16:20;7.35;;;2.63;;
71351;SDS011;59159;51.652;4.864;2023-05-23T09:18:46;7.03;;;2.30;;
71351;SDS011;59159;51.652;4.864;2023-05-23T09:21:13;7.80;;;2.08;;
71351;SDS011;59159;51.652;4.864;2023-05-23T09:23:39;6.45;;;2.50;;
71351;SDS011;59159;51.652;4.864;2023-05-23T09:26:09;7.05;;;2.20;;
71351;SDS011;59159;51.652;4.864;2023-05-23T09:28:36;7.77;;;1.80;;
71351;SDS011;59159;51.652;4.864;2023-05-23T09:31:06;8.85;;;2.30;;
71351;SDS011;59159;51.652;4.864;2023-05-23T09:33:46;10.25;;;2.47;;
71351;SDS011;59159;51.652;4.864;2023-05-23T09:36:12;10.07;;;1.63;;
71351;SDS011;59159;51.652;4.864;2023-05-23T09:38:40;10.70;;;1.80;;
71351;SDS011;59159;51.652;4.864;2023-05-23T09:41:07;10.68;;;2.35;;
71351;SDS011;59159;51.652;4.864;2023-05-23T09:43:36;9.90;;;1.70;;
71351;SDS011;59159;51.652;4.864;2023-05-23T09:46:09;9.30;;;1.70;;
71351;SDS011;59159;51.652;4.864;2023-05-23T09:48:35;9.48;;;1.60;;
71351;SDS011;59159;51.652;4.864;2023-05-23T09:51:05;9.10;;;2.30;;
71351;SDS011;59159;51.652;4.864;2023-05-23T09:53:32;11.70;;;2.57;;
71351;SDS011;59159;51.652;4.864;2023-05-23T09:55:58;8.07;;;1.92;;
71351;SDS011;59159;51.652;4.864;2023-05-23T09:58:25;9.07;;;2.00;;
71351;SDS011;59159;51.652;4.864;2023-05-23T10:00:54;8.77;;;2.20;;
71351;SDS011;59159;51.652;4.864;2023-05-23T10:03:26;8.55;;;2.03;;
71351;SDS011;59159;51.652;4.864;2023-05-23T10:05:56;9.25;;;1.90;;
71351;SDS011;59159;51.652;4.864;2023-05-23T10:13:42;10.50;;;1.90;;
71351;SDS011;59159;51.652;4.864;2023-05-23T10:21:39;8.07;;;1.95;;
71351;SDS011;59159;51.652;4.864;2023-05-23T10:24:05;10.02;;;2.63;;
71351;SDS011;59159;51.652;4.864;2023-05-23T10:26:31;9.23;;;2.10;;
71351;SDS011;59159;51.652;4.864;2023-05-23T10:28:57;9.15;;;2.00;;
71351;SDS011;59159;51.652;4.864;2023-05-23T10:31:24;8.50;;;2.00;;
71351;SDS011;59159;51.652;4.864;2023-05-23T10:33:52;8.33;;;1.90;;
71351;SDS011;59159;51.652;4.864;2023-05-23T10:36:21;10.27;;;2.30;;
71351;SDS011;59159;51.652;4.864;2023-05-23T10:38:52;9.23;;;2.05;;
71351;SDS011;59159;51.652;4.864;2023-05-23T10:41:22;9.48;;;2.10;;
71351;SDS011;59159;51.652;4.864;2023-05-23T10:46:19;8.52;;;2.22;;
71351;SDS011;59159;51.652;4.864;2023-05-23T10:48:46;11.35;;;2.40;;
71351;SDS011;59159;51.652;4.864;2023-05-23T10:51:12;7.37;;;1.63;;
71351;SDS011;59159;51.652;4.864;2023-05-23T10:53:45;7.22;;;1.75;;
71351;SDS011;59159;51.652;4.864;2023-05-23T10:56:21;11.07;;;2.47;;
71351;SDS011;59159;51.652;4.864;2023-05-23T10:58:54;11.57;;;2.40;;
71351;SDS011;59159;51.652;4.864;2023-05-23T11:01:22;9.13;;;2.03;;
71351;SDS011;59159;51.652;4.864;2023-05-23T11:03:50;11.30;;;1.58;;
71351;SDS011;59159;51.652;4.864;2023-05-23T11:06:29;10.07;;;2.05;;
71351;SDS011;59159;51.652;4.864;2023-05-23T11:09:09;6.03;;;1.40;;
71351;SDS011;59159;51.652;4.864;2023-05-23T11:14:16;10.65;;;1.75;;
71351;SDS011;59159;51.652;4.864;2023-05-23T11:16:43;8.97;;;2.00;;
71351;SDS011;59159;51.652;4.864;2023-05-23T11:21:48;7.28;;;1.95;;
71351;SDS011;59159;51.652;4.864;2023-05-23T11:24:14;10.73;;;2.13;;
71351;SDS011;59159;51.652;4.864;2023-05-23T11:26:50;7.45;;;1.70;;
71351;SDS011;59159;51.652;4.864;2023-05-23T11:29:18;14.77;;;2.15;;
71351;SDS011;59159;51.652;4.864;2023-05-23T11:31:44;7.88;;;2.00;;
71351;SDS011;59159;51.652;4.864;2023-05-23T11:34:10;8.83;;;2.20;;
71351;SDS011;59159;51.652;4.864;2023-05-23T11:36:37;8.90;;;1.55;;
71351;SDS011;59159;51.652;4.864;2023-05-23T11:39:04;9.70;;;1.80;;
71351;SDS011;59159;51.652;4.864;2023-05-23T11:41:31;6.27;;;1.67;;
71351;SDS011;59159;51.652;4.864;2023-05-23T11:43:58;7.63;;;1.50;;
71351;SDS011;59159;51.652;4.864;2023-05-23T11:46:25;9.10;;;1.65;;
71351;SDS011;59159;51.652;4.864;2023-05-23T11:48:51;7.77;;;1.43;;
71351;SDS011;59159;51.652;4.864;2023-05-23T11:51:17;9.15;;;2.53;;
71351;SDS011;59159;51.652;4.864;2023-05-23T11:53:46;9.50;;;2.45;;
71351;SDS011;59159;51.652;4.864;2023-05-23T11:56:13;12.75;;;1.88;;
71351;SDS011;59159;51.652;4.864;2023-05-23T11:58:40;8.93;;;1.53;;
71351;SDS011;59159;51.652;4.864;2023-05-23T12:01:07;9.70;;;1.70;;
71351;SDS011;59159;51.652;4.864;2023-05-23T12:03:34;8.02;;;2.42;;
71351;SDS011;59159;51.652;4.864;2023-05-23T12:06:09;10.20;;;1.90;;
71351;SDS011;59159;51.652;4.864;2023-05-23T12:08:35;9.77;;;2.20;;
71351;SDS011;59159;51.652;4.864;2023-05-23T12:11:01;8.38;;;1.83;;
71351;SDS011;59159;51.652;4.864;2023-05-23T12:13:27;8.10;;;2.20;;
71351;SDS011;59159;51.652;4.864;2023-05-23T12:15:54;9.45;;;2.15;;
71351;SDS011;59159;51.652;4.864;2023-05-23T12:18:21;10.00;;;2.20;;
71351;SDS011;59159;51.652;4.864;2023-05-23T12:20:50;9.02;;;1.88;;
71351;SDS011;59159;51.652;4.864;2023-05-23T12:23:17;9.73;;;2.10;;
71351;SDS011;59159;51.652;4.864;2023-05-23T12:25:43;7.40;;;1.90;;
71351;SDS011;59159;51.652;4.864;2023-05-23T12:28:09;10.20;;;1.98;;
71351;SDS011;59159;51.652;4.864;2023-05-23T12:30:41;11.03;;;2.10;;
71351;SDS011;59159;51.652;4.864;2023-05-23T12:33:07;9.32;;;1.63;;
71351;SDS011;59159;51.652;4.864;2023-05-23T12:35:33;10.07;;;2.40;;
71351;SDS011;59159;51.652;4.864;2023-05-23T12:38:00;10.23;;;1.93;;
71351;SDS011;59159;51.652;4.864;2023-05-23T12:40:27;10.20;;;2.28;;
71351;SDS011;59159;51.652;4.864;2023-05-23T12:42:56;9.88;;;2.17;;
71351;SDS011;59159;51.652;4.864;2023-05-23T12:47:55;6.83;;;2.10;;
71351;SDS011;59159;51.652;4.864;2023-05-23T12:50:21;9.63;;;1.90;;
71351;SDS011;59159;51.652;4.864;2023-05-23T12:52:47;10.93;;;2.65;;
71351;SDS011;59159;51.652;4.864;2023-05-23T12:55:13;8.17;;;1.70;;
71351;SDS011;59159;51.652;4.864;2023-05-23T12:57:39;10.00;;;2.33;;
71351;SDS011;59159;51.652;4.864;2023-05-23T13:00:05;14.45;;;2.40;;
71351;SDS011;59159;51.652;4.864;2023-05-23T13:02:32;11.43;;;2.47;;
71351;SDS011;59159;51.652;4.864;2023-05-23T13:04:58;9.35;;;2.10;;
71351;SDS011;59159;51.652;4.864;2023-05-23T13:07:24;8.77;;;1.80;;
71351;SDS011;59159;51.652;4.864;2023-05-23T13:09:50;11.52;;;2.08;;
71351;SDS011;59159;51.652;4.864;2023-05-23T13:12:16;10.17;;;1.93;;
71351;SDS011;59159;51.652;4.864;2023-05-23T13:14:42;8.75;;;2.03;;
71351;SDS011;59159;51.652;4.864;2023-05-23T13:17:08;8.57;;;1.60;;
71351;SDS011;59159;51.652;4.864;2023-05-23T13:19:34;8.80;;;1.83;;
71351;SDS011;59159;51.652;4.864;2023-05-23T13:22:01;13.30;;;1.90;;
71351;SDS011;59159;51.652;4.864;2023-05-23T13:24:28;9.13;;;3.13;;
71351;SDS011;59159;51.652;4.864;2023-05-23T13:26:54;15.23;;;3.30;;
71351;SDS011;59159;51.652;4.864;2023-05-23T13:29:20;8.90;;;1.88;;
71351;SDS011;59159;51.652;4.864;2023-05-23T13:31:47;11.20;;;2.00;;
71351;SDS011;59159;51.652;4.864;2023-05-23T13:34:13;11.00;;;2.20;;
71351;SDS011;59159;51.652;4.864;2023-05-23T13:36:39;9.77;;;1.70;;
71351;SDS011;59159;51.652;4.864;2023-05-23T13:39:05;7.35;;;1.60;;
71351;SDS011;59159;51.652;4.864;2023-05-23T13:41:31;11.02;;;2.08;;
71351;SDS011;59159;51.652;4.864;2023-05-23T13:43:57;11.03;;;2.00;;
71351;SDS011;59159;51.652;4.864;2023-05-23T13:46:23;12.38;;;2.28;;
71351;SDS011;59159;51.652;4.864;2023-05-23T13:48:49;12.02;;;3.65;;
71351;SDS011;59159;51.652;4.864;2023-05-23T13:51:15;12.30;;;2.10;;
71351;SDS011;59159;51.652;4.864;2023-05-23T13:53:41;9.02;;;1.73;;
71351;SDS011;59159;51.652;4.864;2023-05-23T13:56:07;9.32;;;1.75;;
71351;SDS011;59159;51.652;4.864;2023-05-23T13:58:34;6.68;;;1.75;;
71351;SDS011;59159;51.652;4.864;2023-05-23T14:01:00;10.93;;;1.97;;
71351;SDS011;59159;51.652;4.864;2023-05-23T14:03:26;11.65;;;2.25;;
71351;SDS011;59159;51.652;4.864;2023-05-23T14:05:52;12.63;;;2.00;;
71351;SDS011;59159;51.652;4.864;2023-05-23T14:08:18;8.60;;;1.53;;
71351;SDS011;59159;51.652;4.864;2023-05-23T14:10:44;11.85;;;2.47;;
71351;SDS011;59159;51.652;4.864;2023-05-23T14:13:11;10.55;;;1.75;;
71351;SDS011;59159;51.652;4.864;2023-05-23T14:15:37;9.63;;;2.60;;
71351;SDS011;59159;51.652;4.864;2023-05-23T14:18:03;8.23;;;1.50;;
71351;SDS011;59159;51.652;4.864;2023-05-23T14:20:29;11.30;;;1.80;;
71351;SDS011;59159;51.652;4.864;2023-05-23T14:22:57;7.85;;;1.60;;
71351;SDS011;59159;51.652;4.864;2023-05-23T14:25:23;8.60;;;1.77;;
71351;SDS011;59159;51.652;4.864;2023-05-23T14:27:49;9.05;;;1.52;;
71351;SDS011;59159;51.652;4.864;2023-05-23T14:30:15;11.80;;;1.90;;
71351;SDS011;59159;51.652;4.864;2023-05-23T14:32:41;8.30;;;1.87;;
71351;SDS011;59159;51.652;4.864;2023-05-23T14:35:08;9.57;;;1.42;;
71351;SDS011;59159;51.652;4.864;2023-05-23T14:37:35;13.02;;;2.08;;
71351;SDS011;59159;51.652;4.864;2023-05-23T14:40:01;6.80;;;1.40;;
71351;SDS011;59159;51.652;4.864;2023-05-23T14:42:27;10.43;;;1.88;;
71351;SDS011;59159;51.652;4.864;2023-05-23T14:44:53;6.82;;;1.63;;
71351;SDS011;59159;51.652;4.864;2023-05-23T14:47:20;8.85;;;1.48;;
71351;SDS011;59159;51.652;4.864;2023-05-23T14:49:47;7.50;;;1.30;;
71351;SDS011;59159;51.652;4.864;2023-05-23T14:52:13;9.50;;;1.60;;
71351;SDS011;59159;51.652;4.864;2023-05-23T14:54:39;7.38;;;2.08;;
71351;SDS011;59159;51.652;4.864;2023-05-23T14:57:07;10.13;;;1.50;;
71351;SDS011;59159;51.652;4.864;2023-05-23T14:59:33;6.57;;;1.60;;
71351;SDS011;59159;51.652;4.864;2023-05-23T15:02:01;7.35;;;1.33;;
71351;SDS011;59159;51.652;4.864;2023-05-23T15:04:27;7.10;;;1.83;;
71351;SDS011;59159;51.652;4.864;2023-05-23T15:06:53;8.68;;;1.48;;
71351;SDS011;59159;51.652;4.864;2023-05-23T15:09:19;8.90;;;1.50;;